Time;durP1;ratioP1;P1;durP2;ratioP2;P2;SDS_P1;SDS_P2;PMS_P1;PMS_P2;Temp;Humidity;BMP_temperature;BMP_pressure;BME280_temperature;BME280_humidity;BME280_pressure;Samples;Min_cycle;Max_cycle;Signal;HPM_P1;HPM_P2
2023/05/11 00:00:08;;;;;;;5.40;3.55;;;12.90;52.30;;;;;;4922353;29;20085;-59
2023/05/11 00:02:35;;;;;;;4.20;3.40;;;13.00;52.30;;;;;;4925277;29;20032;-58
2023/05/11 00:05:00;;;;;;;5.43;3.70;;;13.00;52.40;;;;;;4921769;29;20052;-58
2023/05/11 00:07:26;;;;;;;5.63;3.53;;;12.90;52.40;;;;;;4931251;29;20474;-58
2023/05/11 00:09:52;;;;;;;5.85;3.47;;;12.90;52.40;;;;;;4928379;29;20039;-58
2023/05/11 00:12:17;;;;;;;4.43;3.35;;;12.90;52.40;;;;;;4933873;29;20036;-65
2023/05/11 00:14:43;;;;;;;5.50;3.70;;;12.90;52.60;;;;;;4925618;29;20074;-63
2023/05/11 00:17:10;;;;;;;5.10;3.75;;;12.90;52.90;;;;;;4927102;29;20075;-63
2023/05/11 00:19:36;;;;;;;3.80;3.42;;;12.90;53.10;;;;;;4918886;29;20032;-64
2023/05/11 00:22:02;;;;;;;4.63;3.30;;;12.80;53.30;;;;;;4933066;29;20034;-60
2023/05/11 00:24:28;;;;;;;4.32;3.10;;;12.80;53.50;;;;;;4927505;29;20444;-60
2023/05/11 00:26:54;;;;;;;5.05;3.53;;;12.80;54.00;;;;;;4923354;29;20041;-59
2023/05/11 00:29:20;;;;;;;5.10;3.45;;;12.80;54.30;;;;;;4924853;29;20031;-59
2023/05/11 00:31:49;;;;;;;5.10;3.20;;;12.80;54.70;;;;;;4929602;29;20035;-58
2023/05/11 00:34:15;;;;;;;6.20;3.67;;;12.80;55.00;;;;;;4927981;29;20028;-57
2023/05/11 00:36:41;;;;;;;6.57;3.45;;;12.70;55.20;;;;;;4927376;29;20039;-57
2023/05/11 00:39:11;;;;;;;4.43;3.45;;;12.70;55.40;;;;;;4924577;29;20058;-57
2023/05/11 00:41:37;;;;;;;5.00;3.10;;;12.70;55.60;;;;;;4924971;29;20039;-57
2023/05/11 00:44:03;;;;;;;5.20;3.28;;;12.70;55.80;;;;;;4934694;29;20039;-58
2023/05/11 00:46:29;;;;;;;4.53;3.50;;;12.60;56.00;;;;;;4935277;29;20036;-63
2023/05/11 00:48:55;;;;;;;4.10;3.33;;;12.60;56.10;;;;;;4933059;29;20034;-63
2023/05/11 00:51:21;;;;;;;4.45;3.40;;;12.50;56.10;;;;;;4933947;29;20583;-60
2023/05/11 00:53:48;;;;;;;3.90;3.20;;;12.50;56.30;;;;;;4927479;29;20036;-60
2023/05/11 00:56:14;;;;;;;4.50;3.60;;;12.50;56.30;;;;;;4919488;29;20094;-60
2023/05/11 00:58:40;;;;;;;4.57;3.42;;;12.50;56.40;;;;;;4932194;29;20031;-62
2023/05/11 01:01:05;;;;;;;4.85;3.65;;;12.50;56.60;;;;;;4928749;29;20692;-67
2023/05/11 01:03:33;;;;;;;5.25;3.63;;;12.40;56.70;;;;;;4925130;29;20460;-64
2023/05/11 01:06:15;;;;;;;5.85;3.90;;;12.40;56.70;;;;;;4932461;29;20107;-57
2023/05/11 01:08:55;;;;;;;5.65;3.88;;;12.40;56.80;;;;;;4929643;29;20020;-59
2023/05/11 01:11:42;;;;;;;5.68;4.10;;;12.40;56.90;;;;;;4931874;29;20040;-49
2023/05/11 01:14:30;;;;;;;5.82;3.97;;;12.30;57.10;;;;;;4929434;29;20455;-54
2023/05/11 01:17:02;;;;;;;4.53;3.58;;;12.30;57.10;;;;;;4933491;29;20051;-59
2023/05/11 01:19:37;;;;;;;5.03;3.78;;;12.30;57.20;;;;;;4935643;29;20039;-59
2023/05/11 01:22:12;;;;;;;5.38;3.95;;;12.30;57.20;;;;;;4922545;29;20028;-60
2023/05/11 01:25:20;;;;;;;4.65;3.83;;;12.30;57.30;;;;;;4944959;29;20043;-59
2023/05/11 01:28:13;;;;;;;4.07;3.65;;;12.30;57.30;;;;;;4904230;29;20098;-60
2023/05/11 01:30:47;;;;;;;5.57;4.13;;;12.20;57.10;;;;;;4933230;29;20028;-63
2023/05/11 01:33:15;;;;;;;7.40;4.32;;;12.20;57.00;;;;;;4933865;29;20039;-63
2023/05/11 01:35:49;;;;;;;4.60;4.07;;;12.20;57.10;;;;;;4933260;29;20055;-54
2023/05/11 01:38:18;;;;;;;4.57;3.97;;;12.10;57.10;;;;;;4928236;29;20490;-53
2023/05/11 01:40:51;;;;;;;4.95;3.88;;;12.10;57.00;;;;;;4935283;29;20054;-65
2023/05/11 01:43:21;;;;;;;6.20;4.15;;;12.00;57.10;;;;;;4932089;29;20091;-66
2023/05/11 01:45:49;;;;;;;7.13;4.10;;;12.00;57.50;;;;;;4928695;29;20090;-57
2023/05/11 01:48:24;;;;;;;5.78;4.15;;;12.00;58.00;;;;;;4933451;29;20150;-57
2023/05/11 01:50:51;;;;;;;7.60;3.95;;;11.90;58.30;;;;;;4935596;29;20043;-58
2023/05/11 01:53:18;;;;;;;6.82;4.32;;;11.90;58.50;;;;;;4924704;29;20040;-57
2023/05/11 01:55:46;;;;;;;5.05;3.95;;;11.90;59.50;;;;;;4934443;29;20048;-57
2023/05/11 01:58:15;;;;;;;6.65;4.60;;;11.80;59.10;;;;;;4927513;29;20036;-57
2023/05/11 02:00:43;;;;;;;6.05;4.13;;;11.80;59.20;;;;;;4919061;29;20063;-57
2023/05/11 02:03:09;;;;;;;6.28;4.30;;;11.80;59.50;;;;;;4917989;29;20029;-58
2023/05/11 02:05:37;;;;;;;5.45;4.05;;;11.70;59.70;;;;;;4935156;29;20058;-66
2023/05/11 02:08:05;;;;;;;4.88;4.15;;;11.70;59.70;;;;;;4925822;29;20115;-62
2023/05/11 02:10:32;;;;;;;6.18;4.53;;;11.70;60.40;;;;;;4928194;29;20039;-59
2023/05/11 02:12:59;;;;;;;6.05;4.35;;;11.70;60.80;;;;;;4920436;29;20063;-60
2023/05/11 02:15:26;;;;;;;5.28;4.07;;;11.60;61.00;;;;;;4933313;29;20036;-60
2023/05/11 02:17:53;;;;;;;5.57;4.53;;;11.60;61.00;;;;;;4927133;29;20036;-60
2023/05/11 02:20:19;;;;;;;6.03;4.35;;;11.60;61.00;;;;;;4923550;29;20546;-64
2023/05/11 02:22:46;;;;;;;6.97;4.30;;;11.60;61.20;;;;;;4937585;29;20518;-65
2023/05/11 02:25:14;;;;;;;6.13;4.78;;;11.60;61.20;;;;;;4925190;29;20392;-66
2023/05/11 02:27:40;;;;;;;5.45;4.45;;;11.50;61.20;;;;;;4923801;29;20041;-60
2023/05/11 02:30:07;;;;;;;6.05;4.35;;;11.60;61.20;;;;;;4931075;29;20041;-62
2023/05/11 02:32:37;;;;;;;5.68;4.43;;;11.50;61.10;;;;;;4926190;29;20038;-62
2023/05/11 02:35:11;;;;;;;4.95;3.88;;;11.50;61.20;;;;;;4932999;29;20664;-63
2023/05/11 02:37:42;;;;;;;6.03;4.18;;;11.50;61.40;;;;;;4932210;29;20032;-65
2023/05/11 02:40:18;;;;;;;5.32;4.47;;;11.50;61.70;;;;;;4940835;29;20494;-64
2023/05/11 02:42:47;;;;;;;5.18;3.95;;;11.50;61.80;;;;;;4925936;29;20199;-64
2023/05/11 02:45:15;;;;;;;6.43;4.80;;;11.50;61.90;;;;;;4937048;29;20127;-57
2023/05/11 02:47:53;;;;;;;4.35;3.75;;;11.50;62.00;;;;;;4925624;29;20057;-57
2023/05/11 02:50:23;;;;;;;5.78;4.13;;;11.60;62.00;;;;;;4929880;29;20447;-59
2023/05/11 02:52:53;;;;;;;6.28;4.20;;;11.60;62.10;;;;;;4928486;29;20027;-59
2023/05/11 02:55:19;;;;;;;6.68;4.72;;;11.60;62.10;;;;;;4930799;29;20027;-51
2023/05/11 02:57:45;;;;;;;4.68;3.97;;;11.60;62.30;;;;;;4929092;29;20035;-54
2023/05/11 03:00:12;;;;;;;5.00;3.88;;;11.60;62.20;;;;;;4918867;29;20036;-55
2023/05/11 03:02:38;;;;;;;4.72;3.95;;;11.70;62.90;;;;;;4925274;29;20415;-59
2023/05/11 03:05:04;;;;;;;5.35;4.13;;;11.80;62.10;;;;;;4927927;29;20087;-59
2023/05/11 03:07:34;;;;;;;7.53;4.15;;;11.80;62.10;;;;;;4929311;29;20027;-58
2023/05/11 03:10:03;;;;;;;4.72;3.63;;;11.80;62.00;;;;;;4928455;29;20043;-59
2023/05/11 03:12:34;;;;;;;5.30;3.90;;;11.90;61.70;;;;;;4929962;29;20043;-53
2023/05/11 03:15:01;;;;;;;6.22;3.78;;;12.00;61.50;;;;;;4927238;29;20035;-54
2023/05/11 03:17:30;;;;;;;6.50;4.18;;;12.10;61.50;;;;;;4932265;29;20035;-56
2023/05/11 03:19:57;;;;;;;4.82;3.88;;;12.20;61.40;;;;;;4930220;29;20399;-57
2023/05/11 03:22:23;;;;;;;5.45;4.32;;;12.30;61.40;;;;;;4921071;29;20463;-58
2023/05/11 03:24:50;;;;;;;4.35;3.80;;;12.40;61.30;;;;;;4928810;29;20074;-59
2023/05/11 03:27:17;;;;;;;4.32;3.80;;;12.60;61.50;;;;;;4928262;29;20118;-60
2023/05/11 03:29:44;;;;;;;5.18;3.80;;;12.70;61.30;;;;;;4926371;29;20042;-60
2023/05/11 03:32:11;;;;;;;6.32;4.18;;;12.80;61.30;;;;;;4939545;29;20046;-58
2023/05/11 03:34:36;;;;;;;4.97;3.40;;;13.00;61.40;;;;;;4926227;28;20040;-58
2023/05/11 03:37:05;;;;;;;5.00;3.58;;;13.20;61.50;;;;;;4927743;29;20046;-59
2023/05/11 03:39:34;;;;;;;4.93;3.60;;;13.40;61.70;;;;;;4923439;29;20107;-59
2023/05/11 03:42:00;;;;;;;4.35;3.40;;;13.60;61.70;;;;;;4921657;29;20399;-58
2023/05/11 03:44:30;;;;;;;4.82;3.30;;;13.90;61.50;;;;;;4925111;29;20028;-57
2023/05/11 03:46:57;;;;;;;3.92;3.25;;;14.10;60.90;;;;;;4924265;29;20051;-60
2023/05/11 03:49:24;;;;;;;5.22;3.42;;;14.40;60.40;;;;;;4921620;29;20048;-61
2023/05/11 03:51:50;;;;;;;4.57;3.25;;;14.70;60.40;;;;;;4930138;29;20040;-63
2023/05/11 03:54:16;;;;;;;3.63;2.97;;;15.10;60.10;;;;;;4930124;29;20098;-65
2023/05/11 03:56:42;;;;;;;3.50;3.03;;;15.70;59.80;;;;;;4924824;29;20052;-63
2023/05/11 03:59:08;;;;;;;3.03;2.70;;;16.40;58.90;;;;;;4926540;29;20075;-63
2023/05/11 04:01:34;;;;;;;3.65;3.10;;;17.10;57.60;;;;;;4924557;29;20020;-58
2023/05/11 04:04:00;;;;;;;5.20;3.17;;;18.00;56.40;;;;;;4930831;29;20376;-57
2023/05/11 04:06:25;;;;;;;3.45;2.90;;;18.80;55.00;;;;;;4929354;29;20090;-56
2023/05/11 04:08:51;;;;;;;4.18;2.92;;;19.60;53.90;;;;;;4928289;29;20114;-58
2023/05/11 04:11:17;;;;;;;3.80;3.00;;;20.30;52.80;;;;;;4933075;29;20036;-52
2023/05/11 04:13:42;;;;;;;3.53;2.90;;;21.00;51.70;;;;;;4928456;29;20032;-55
2023/05/11 04:16:08;;;;;;;3.50;2.85;;;21.60;50.80;;;;;;4925935;29;20044;-64
2023/05/11 04:18:34;;;;;;;3.50;2.95;;;22.20;50.00;;;;;;4930652;29;20027;-65
2023/05/11 04:21:00;;;;;;;4.30;2.78;;;22.70;49.10;;;;;;4923293;29;20083;-63
2023/05/11 04:23:26;;;;;;;3.67;2.67;;;23.00;48.30;;;;;;4930145;29;20082;-63
2023/05/11 04:25:53;;;;;;;3.47;3.00;;;23.10;47.30;;;;;;4931665;29;20044;-64
2023/05/11 04:28:19;;;;;;;5.63;3.20;;;22.90;47.30;;;;;;4931834;29;20091;-65
2023/05/11 04:30:45;;;;;;;3.90;2.90;;;22.90;47.40;;;;;;4929449;29;20115;-64
2023/05/11 04:33:13;;;;;;;3.83;3.03;;;23.30;47.30;;;;;;4934456;29;20450;-63
2023/05/11 04:35:39;;;;;;;3.25;2.58;;;23.70;47.00;;;;;;4930902;29;20462;-62
2023/05/11 04:38:04;;;;;;;3.78;2.85;;;24.20;46.60;;;;;;4921295;29;20035;-60
2023/05/11 04:40:30;;;;;;;4.20;2.60;;;24.60;46.10;;;;;;4922888;29;20052;-61
2023/05/11 04:42:56;;;;;;;4.60;3.00;;;25.00;45.60;;;;;;4926879;29;20151;-60
2023/05/11 04:45:21;;;;;;;4.35;2.90;;;25.40;45.30;;;;;;4916127;29;20044;-60
2023/05/11 04:47:47;;;;;;;4.15;2.90;;;25.80;44.80;;;;;;4919669;29;20028;-61
2023/05/11 04:50:13;;;;;;;3.55;2.97;;;26.10;44.40;;;;;;4915182;29;20461;-61
2023/05/11 04:52:38;;;;;;;3.58;2.47;;;26.10;44.00;;;;;;4922891;29;20119;-61
2023/05/11 04:55:04;;;;;;;2.60;2.40;;;26.20;44.00;;;;;;4927237;29;20036;-61
2023/05/11 04:57:30;;;;;;;4.00;2.40;;;26.40;43.60;;;;;;4922876;29;20598;-61
2023/05/11 04:59:55;;;;;;;3.45;2.22;;;26.60;42.90;;;;;;4928541;29;20047;-62
2023/05/11 05:02:21;;;;;;;2.55;2.00;;;26.90;42.30;;;;;;4920044;29;20032;-62
2023/05/11 05:04:47;;;;;;;2.50;2.30;;;27.00;41.50;;;;;;4922285;29;20089;-59
2023/05/11 05:07:12;;;;;;;3.33;2.45;;;26.70;41.00;;;;;;4921122;29;20467;-60
2023/05/11 05:09:38;;;;;;;4.20;2.40;;;26.20;40.70;;;;;;4923925;29;20032;-61
2023/05/11 05:12:04;;;;;;;4.38;2.67;;;25.70;40.70;;;;;;4930506;29;20032;-53
2023/05/11 05:14:30;;;;;;;2.75;2.35;;;25.10;40.60;;;;;;4933257;29;20032;-55
2023/05/11 05:16:55;;;;;;;3.08;2.45;;;24.60;41.00;;;;;;4921854;29;20031;-55
2023/05/11 05:19:21;;;;;;;3.28;2.55;;;24.40;41.00;;;;;;4926162;29;20683;-52
2023/05/11 05:21:47;;;;;;;2.50;2.28;;;24.50;40.70;;;;;;4928049;29;20115;-64
2023/05/11 05:24:12;;;;;;;3.67;2.60;;;24.60;40.00;;;;;;4919429;29;20828;-62
2023/05/11 05:26:38;;;;;;;2.92;2.63;;;24.60;39.40;;;;;;4921885;29;20094;-64
2023/05/11 05:29:05;;;;;;;3.45;2.55;;;24.20;39.60;;;;;;4927852;29;20135;-64
2023/05/11 05:31:31;;;;;;;3.65;2.70;;;23.70;40.00;;;;;;4929435;29;20031;-62
2023/05/11 05:33:56;;;;;;;3.17;2.88;;;23.10;40.00;;;;;;4932713;29;20039;-64
2023/05/11 05:36:22;;;;;;;2.90;2.60;;;22.50;40.40;;;;;;4928594;29;20148;-66
2023/05/11 05:38:47;;;;;;;3.72;2.83;;;21.90;40.70;;;;;;4933827;29;20024;-64
2023/05/11 05:41:13;;;;;;;2.72;2.47;;;21.40;41.20;;;;;;4917687;29;20167;-65
2023/05/11 05:43:39;;;;;;;3.80;2.63;;;20.90;41.60;;;;;;4927441;29;20035;-64
2023/05/11 05:46:05;;;;;;;2.78;2.50;;;20.50;42.10;;;;;;4921525;29;20036;-61
2023/05/11 05:48:31;;;;;;;4.78;2.95;;;20.10;42.50;;;;;;4913518;29;20585;-60
2023/05/11 05:50:56;;;;;;;3.60;2.63;;;19.70;42.90;;;;;;4917191;29;20091;-53
2023/05/11 05:53:22;;;;;;;3.88;2.80;;;19.50;43.30;;;;;;4919092;29;20028;-55
2023/05/11 05:55:48;;;;;;;5.07;2.85;;;19.20;43.50;;;;;;4926132;29;20122;-55
2023/05/11 05:58:13;;;;;;;3.47;2.83;;;19.00;43.80;;;;;;4922303;29;20743;-55
2023/05/11 06:00:39;;;;;;;2.85;2.55;;;18.90;44.10;;;;;;4923737;29;20055;-59
2023/05/11 06:03:04;;;;;;;3.42;2.63;;;18.70;44.30;;;;;;4913104;29;20042;-63
2023/05/11 06:05:30;;;;;;;3.03;2.70;;;18.60;44.50;;;;;;4916173;29;20083;-59
2023/05/11 06:07:56;;;;;;;3.88;2.63;;;18.40;44.60;;;;;;4912888;29;20115;-60
2023/05/11 06:10:21;;;;;;;3.53;3.00;;;18.30;44.80;;;;;;4919921;29;20051;-61
2023/05/11 06:12:47;;;;;;;3.40;2.85;;;18.20;45.10;;;;;;4919292;29;20028;-61
2023/05/11 06:15:13;;;;;;;2.90;2.60;;;18.10;45.10;;;;;;4922592;29;20086;-59
2023/05/11 06:17:38;;;;;;;2.70;2.50;;;18.10;45.20;;;;;;4918997;29;20036;-60
2023/05/11 06:20:05;;;;;;;3.35;2.53;;;18.00;45.20;;;;;;4923976;29;20040;-59
2023/05/11 06:22:31;;;;;;;3.90;2.97;;;17.90;45.50;;;;;;4920034;29;20040;-59
2023/05/11 06:24:56;;;;;;;3.08;2.75;;;17.80;45.60;;;;;;4908765;29;20048;-61
2023/05/11 06:27:22;;;;;;;3.13;2.80;;;17.80;45.80;;;;;;4916637;29;20036;-62
2023/05/11 06:29:48;;;;;;;3.83;2.75;;;17.80;46.00;;;;;;4919392;29;20203;-56
2023/05/11 06:32:13;;;;;;;3.78;3.00;;;17.70;46.00;;;;;;4919182;29;20047;-62
2023/05/11 06:34:39;;;;;;;4.10;2.83;;;17.70;46.10;;;;;;4913306;29;20050;-59
2023/05/11 06:37:05;;;;;;;3.05;2.40;;;17.70;46.20;;;;;;4915787;29;20039;-61
2023/05/11 06:39:35;;;;;;;3.45;2.55;;;17.60;46.10;;;;;;4914694;29;20051;-56
2023/05/11 06:42:00;;;;;;;3.08;2.60;;;17.70;46.50;;;;;;4915725;29;21600;-59
2023/05/11 06:44:26;;;;;;;2.95;2.63;;;17.70;46.70;;;;;;4913534;29;20135;-58
2023/05/11 06:46:51;;;;;;;3.22;2.60;;;17.60;46.70;;;;;;4905416;29;20111;-60
2023/05/11 06:49:17;;;;;;;3.00;2.70;;;17.60;46.80;;;;;;4916958;29;20028;-62
2023/05/11 06:51:43;;;;;;;2.70;2.50;;;17.60;47.00;;;;;;4907504;29;20031;-60
2023/05/11 06:54:08;;;;;;;3.15;2.50;;;17.60;47.10;;;;;;4906463;29;20055;-60
2023/05/11 06:56:34;;;;;;;3.97;2.90;;;17.60;47.20;;;;;;4914880;29;20721;-62
2023/05/11 06:59:00;;;;;;;3.20;2.55;;;17.60;47.40;;;;;;4908195;29;20059;-60
2023/05/11 07:01:26;;;;;;;2.72;2.53;;;17.60;47.60;;;;;;4911989;29;20083;-62
2023/05/11 07:03:55;;;;;;;2.85;2.63;;;17.60;47.70;;;;;;4911019;29;20800;-61
2023/05/11 07:06:21;;;;;;;3.03;2.63;;;17.60;47.60;;;;;;4910749;29;21628;-60
2023/05/11 07:08:47;;;;;;;2.70;2.50;;;17.70;47.50;;;;;;4906238;29;20039;-63
2023/05/11 07:11:14;;;;;;;3.97;2.70;;;17.70;47.40;;;;;;4914292;29;20039;-56
2023/05/11 07:13:40;;;;;;;2.90;2.70;;;17.70;47.50;;;;;;4904378;29;20130;-58
2023/05/11 07:16:06;;;;;;;3.17;2.50;;;17.70;47.50;;;;;;4891690;29;20064;-59
2023/05/11 07:18:32;;;;;;;2.78;2.40;;;17.80;47.30;;;;;;4897054;29;20040;-60
2023/05/11 07:20:57;;;;;;;2.38;2.17;;;17.80;47.40;;;;;;4901732;29;20095;-62
2023/05/11 07:23:23;;;;;;;2.60;2.40;;;17.90;47.30;;;;;;4898779;29;20743;-60
2023/05/11 07:25:50;;;;;;;2.40;2.20;;;18.00;47.10;;;;;;4897901;29;20043;-59
2023/05/11 07:28:16;;;;;;;2.58;2.38;;;18.00;46.90;;;;;;4904800;29;20126;-60
2023/05/11 07:30:41;;;;;;;2.55;2.35;;;18.10;46.80;;;;;;4896340;29;20051;-62
2023/05/11 07:33:07;;;;;;;3.00;2.50;;;18.10;46.60;;;;;;4901209;29;20032;-58
2023/05/11 07:35:33;;;;;;;2.90;2.10;;;18.10;46.70;;;;;;4904141;29;20518;-59
2023/05/11 07:37:58;;;;;;;2.80;2.50;;;18.20;46.40;;;;;;4881050;28;20115;-58
2023/05/11 07:40:24;;;;;;;2.58;2.08;;;18.20;46.00;;;;;;4892205;29;20042;-60
2023/05/11 07:42:50;;;;;;;2.38;1.98;;;18.20;45.60;;;;;;4908325;29;20063;-61
2023/05/11 07:45:15;;;;;;;2.55;2.28;;;18.30;45.20;;;;;;4899892;29;20370;-59
2023/05/11 07:47:41;;;;;;;2.22;2.13;;;18.30;45.20;;;;;;4897407;29;20405;-58
2023/05/11 07:50:07;;;;;;;2.65;2.10;;;18.40;45.20;;;;;;4901736;29;20983;-59
2023/05/11 07:52:33;;;;;;;2.10;2.00;;;18.50;44.90;;;;;;4900633;29;20036;-58
2023/05/11 07:54:59;;;;;;;2.22;2.03;;;18.50;45.00;;;;;;4897566;29;20158;-60
2023/05/11 07:57:24;;;;;;;2.90;2.08;;;18.60;44.80;;;;;;4894397;29;20052;-61
2023/05/11 07:59:50;;;;;;;2.40;2.20;;;18.60;44.40;;;;;;4906484;29;20063;-58
2023/05/11 08:02:17;;;;;;;2.05;1.85;;;18.70;44.50;;;;;;4897412;29;20405;-59
2023/05/11 08:04:43;;;;;;;2.35;2.10;;;18.70;44.60;;;;;;4903205;29;20040;-60
2023/05/11 08:07:09;;;;;;;2.55;2.13;;;18.80;44.60;;;;;;4899523;29;20042;-61
2023/05/11 08:09:35;;;;;;;2.15;2.00;;;18.80;44.30;;;;;;4893460;29;20043;-58
2023/05/11 08:12:02;;;;;;;2.00;1.85;;;18.80;43.90;;;;;;4903331;29;20042;-61
2023/05/11 08:14:28;;;;;;;2.08;1.98;;;18.80;43.70;;;;;;4903612;29;20035;-60
2023/05/11 08:16:54;;;;;;;2.10;1.95;;;18.70;43.90;;;;;;4899194;29;20067;-61
2023/05/11 08:19:19;;;;;;;2.38;2.17;;;18.60;43.90;;;;;;4899504;29;20135;-58
2023/05/11 08:21:45;;;;;;;2.25;2.05;;;18.60;43.90;;;;;;4896415;29;20043;-63
2023/05/11 08:24:12;;;;;;;2.20;2.00;;;18.60;43.70;;;;;;4902047;29;20036;-59
2023/05/11 08:26:37;;;;;;;2.60;2.25;;;18.60;43.60;;;;;;4908286;29;20783;-59
2023/05/11 08:29:03;;;;;;;2.40;1.88;;;18.60;43.70;;;;;;4921318;28;20036;-60
2023/05/11 08:31:29;;;;;;;3.03;2.20;;;18.50;43.60;;;;;;4903563;29;20038;-61
2023/05/11 08:33:55;;;;;;;2.20;2.03;;;18.50;43.60;;;;;;4891809;29;20035;-61
2023/05/11 08:36:21;;;;;;;2.10;2.00;;;18.50;43.60;;;;;;4902361;29;20519;-58
2023/05/11 08:38:47;;;;;;;2.28;2.08;;;18.50;43.60;;;;;;4891302;29;20478;-59
2023/05/11 08:41:12;;;;;;;2.28;2.08;;;18.50;43.50;;;;;;4898165;29;20099;-61
2023/05/11 08:43:39;;;;;;;2.10;2.00;;;18.40;43.30;;;;;;4888176;29;20036;-56
2023/05/11 08:46:07;;;;;;;2.58;2.38;;;18.50;43.50;;;;;;4902388;29;20507;-60
2023/05/11 08:48:33;;;;;;;3.22;2.30;;;18.40;43.50;;;;;;4898181;29;20040;-58
2023/05/11 08:51:00;;;;;;;4.20;1.90;;;18.40;43.60;;;;;;4898824;29;20036;-60
2023/05/11 08:53:27;;;;;;;1.73;1.63;;;18.40;43.30;;;;;;4904405;29;21048;-60
2023/05/11 08:55:54;;;;;;;2.03;1.83;;;18.40;43.00;;;;;;4896993;29;20052;-61
2023/05/11 08:58:23;;;;;;;1.88;1.73;;;18.30;42.80;;;;;;4886428;29;20446;-60
2023/05/11 09:00:49;;;;;;;1.83;1.73;;;18.30;42.50;;;;;;4891229;29;20672;-61
2023/05/11 09:03:16;;;;;;;2.00;1.90;;;18.30;42.40;;;;;;4902797;29;20123;-64
2023/05/11 09:05:45;;;;;;;1.90;1.80;;;18.30;42.30;;;;;;4911088;29;20784;-60
2023/05/11 09:08:12;;;;;;;2.03;1.83;;;18.20;42.20;;;;;;4894145;29;20039;-62
2023/05/11 09:10:38;;;;;;;1.88;1.75;;;18.20;42.10;;;;;;4896668;29;20067;-64
2023/05/11 09:13:04;;;;;;;2.30;2.10;;;18.20;41.90;;;;;;4893465;29;20035;-58
2023/05/11 09:15:30;;;;;;;2.22;2.03;;;18.20;41.70;;;;;;4913768;29;20060;-61
2023/05/11 09:17:56;;;;;;;1.92;1.83;;;18.20;41.70;;;;;;4910009;29;20036;-60
2023/05/11 09:20:30;;;;;;;1.80;1.70;;;18.20;41.50;;;;;;4901458;29;20119;-59
2023/05/11 09:22:57;;;;;;;1.92;1.83;;;18.20;42.00;;;;;;4909123;29;20154;-61
2023/05/11 09:25:24;;;;;;;1.95;1.70;;;18.20;41.60;;;;;;4905640;29;20044;-58
2023/05/11 09:27:51;;;;;;;1.85;1.75;;;18.30;41.40;;;;;;4901810;29;20608;-59
2023/05/11 09:30:22;;;;;;;1.85;1.75;;;18.30;41.10;;;;;;4908059;29;20035;-60
2023/05/11 09:32:57;;;;;;;2.08;1.95;;;18.40;41.10;;;;;;4909661;29;20050;-59
2023/05/11 09:35:24;;;;;;;2.38;1.77;;;18.40;40.80;;;;;;4897461;29;20388;-62
2023/05/11 09:38:08;;;;;;;2.00;1.90;;;18.40;40.80;;;;;;4907841;29;20059;-61
2023/05/11 09:40:48;;;;;;;2.30;1.85;;;18.40;40.80;;;;;;4906745;29;20119;-61
2023/05/11 09:43:25;;;;;;;1.63;1.53;;;18.40;40.80;;;;;;4906344;29;20138;-59
2023/05/11 09:45:56;;;;;;;2.15;2.00;;;18.40;40.60;;;;;;4903632;29;20138;-58
2023/05/11 09:48:31;;;;;;;2.30;2.10;;;18.40;40.60;;;;;;4908538;29;20035;-60
2023/05/11 09:51:04;;;;;;;2.47;1.90;;;18.40;40.10;;;;;;4911862;29;20037;-60
2023/05/11 09:53:48;;;;;;;2.03;1.90;;;18.40;40.20;;;;;;4905635;29;20531;-63
2023/05/11 09:56:14;;;;;;;2.00;1.90;;;18.50;40.00;;;;;;4907477;29;20062;-62
2023/05/11 09:58:50;;;;;;;2.40;2.20;;;18.40;39.90;;;;;;4893314;29;20043;-58
2023/05/11 10:01:18;;;;;;;2.33;1.80;;;18.50;39.70;;;;;;4881243;28;20095;-58
2023/05/11 10:03:49;;;;;;;3.25;2.03;;;18.40;40.00;;;;;;4895145;29;20051;-61
2023/05/11 10:06:15;;;;;;;1.95;1.85;;;18.40;40.00;;;;;;4907856;29;20071;-61
2023/05/11 10:08:41;;;;;;;2.53;1.92;;;18.40;40.10;;;;;;4902966;29;20055;-62
2023/05/11 10:11:07;;;;;;;2.33;2.13;;;18.40;40.00;;;;;;4907933;29;20036;-62
2023/05/11 10:13:34;;;;;;;2.33;2.00;;;18.50;40.00;;;;;;4918019;29;20043;-61
2023/05/11 10:16:03;;;;;;;3.10;2.20;;;18.50;39.60;;;;;;4907030;29;20032;-61
2023/05/11 10:18:30;;;;;;;2.45;2.00;;;18.50;39.40;;;;;;4903652;29;20043;-60
2023/05/11 10:20:57;;;;;;;3.05;2.05;;;18.50;39.30;;;;;;4908744;29;20024;-63
2023/05/11 10:23:24;;;;;;;1.88;1.77;;;18.50;39.10;;;;;;4913947;29;20258;-61
2023/05/11 10:25:51;;;;;;;2.65;1.90;;;18.50;39.20;;;;;;4900528;29;20048;-59
2023/05/11 10:28:17;;;;;;;2.15;1.73;;;18.50;39.30;;;;;;4911214;29;20170;-60
2023/05/11 10:30:44;;;;;;;4.25;1.85;;;18.50;39.10;;;;;;4898176;29;20035;-58
2023/05/11 10:33:10;;;;;;;2.20;2.00;;;18.50;38.90;;;;;;4893884;29;20072;-62
2023/05/11 10:35:37;;;;;;;2.13;2.00;;;18.50;39.20;;;;;;4901235;29;20047;-58
2023/05/11 10:38:03;;;;;;;1.90;1.73;;;18.50;39.30;;;;;;4902628;29;20063;-57
2023/05/11 10:40:33;;;;;;;2.10;1.90;;;18.40;39.30;;;;;;4893160;29;20035;-57
2023/05/11 10:43:11;;;;;;;2.17;1.98;;;18.40;39.60;;;;;;4892070;29;20070;-57
2023/05/11 10:45:48;;;;;;;2.13;1.92;;;18.30;38.80;;;;;;4903509;29;20044;-63
2023/05/11 10:48:50;;;;;;;2.22;2.03;;;18.30;38.80;;;;;;4893399;29;20229;-59
2023/05/11 10:51:24;;;;;;;2.00;1.77;;;18.30;38.30;;;;;;4899383;29;20063;-60
2023/05/11 10:54:06;;;;;;;2.28;1.98;;;18.20;38.90;;;;;;4901574;29;20185;-59
2023/05/11 10:57:02;;;;;;;3.20;2.47;;;18.30;38.70;;;;;;4906626;29;20142;-58
2023/05/11 10:59:49;;;;;;;3.15;2.30;;;18.30;38.80;;;;;;4906176;29;20039;-62
2023/05/11 11:02:17;;;;;;;1.92;1.80;;;18.30;38.80;;;;;;4894067;29;21047;-60
2023/05/11 11:04:50;;;;;;;2.38;2.17;;;18.30;38.50;;;;;;4901008;29;21686;-58
2023/05/11 11:07:18;;;;;;;2.38;2.00;;;18.20;38.40;;;;;;4897229;29;20498;-59
2023/05/11 11:10:00;;;;;;;2.55;2.33;;;18.20;38.50;;;;;;4902323;29;20035;-61
2023/05/11 11:12:28;;;;;;;2.72;1.90;;;18.20;38.40;;;;;;4907111;29;20946;-59
2023/05/11 11:14:57;;;;;;;2.45;2.25;;;18.20;38.50;;;;;;4904831;29;20046;-61
2023/05/11 11:17:25;;;;;;;1.88;1.75;;;18.20;38.60;;;;;;4908095;29;20043;-61
2023/05/11 11:19:51;;;;;;;2.00;1.90;;;18.20;38.60;;;;;;4902794;29;20119;-60
2023/05/11 11:22:40;;;;;;;2.38;2.17;;;18.10;38.50;;;;;;4909567;29;20043;-63
2023/05/11 11:25:07;;;;;;;2.10;1.85;;;18.10;38.40;;;;;;4910354;29;20133;-59
2023/05/11 11:27:53;;;;;;;2.08;1.88;;;18.20;38.50;;;;;;4907256;29;21292;-58
2023/05/11 11:30:24;;;;;;;2.20;1.85;;;18.20;38.10;;;;;;4910332;29;20038;-61
2023/05/11 11:32:55;;;;;;;2.97;1.98;;;18.20;38.40;;;;;;4906507;29;20047;-60
2023/05/11 11:35:41;;;;;;;2.10;1.88;;;18.20;38.30;;;;;;4912276;29;20561;-52
2023/05/11 11:38:18;;;;;;;2.13;1.92;;;18.20;38.20;;;;;;4911088;29;20035;-55
2023/05/11 11:40:51;;;;;;;2.00;1.80;;;18.20;38.10;;;;;;4906532;29;20522;-60
2023/05/11 11:43:18;;;;;;;4.38;2.80;;;18.30;38.20;;;;;;4906158;29;20066;-61
2023/05/11 11:46:00;;;;;;;2.28;2.08;;;18.30;38.30;;;;;;4895982;29;20106;-57
2023/05/11 11:48:37;;;;;;;1.98;1.88;;;18.30;38.10;;;;;;4903176;29;20032;-58
2023/05/11 11:51:09;;;;;;;2.58;1.65;;;18.30;38.10;;;;;;4909935;29;20035;-61
2023/05/11 11:53:39;;;;;;;2.33;2.05;;;18.30;38.10;;;;;;4906306;29;20031;-55
2023/05/11 11:56:14;;;;;;;2.15;2.03;;;18.30;38.30;;;;;;4909400;29;20054;-63
2023/05/11 11:58:45;;;;;;;2.22;2.03;;;18.30;38.40;;;;;;4916058;29;21347;-61
2023/05/11 12:01:13;;;;;;;2.10;2.00;;;18.40;38.30;;;;;;4902240;29;20483;-60
2023/05/11 12:03:40;;;;;;;1.83;1.73;;;18.30;38.20;;;;;;4912938;29;20034;-61
2023/05/11 12:06:08;;;;;;;2.38;2.17;;;18.40;38.40;;;;;;4910606;29;20166;-61
2023/05/11 12:08:35;;;;;;;1.98;1.88;;;18.30;38.50;;;;;;4900052;29;20044;-61
2023/05/11 12:11:02;;;;;;;2.22;2.03;;;18.40;38.70;;;;;;4907118;29;20035;-61
2023/05/11 12:13:28;;;;;;;2.17;1.98;;;18.30;38.70;;;;;;4905457;29;21452;-60
2023/05/11 12:16:11;;;;;;;2.38;2.17;;;18.30;38.50;;;;;;4910053;29;20039;-59
2023/05/11 12:18:37;;;;;;;2.40;2.20;;;18.20;38.70;;;;;;4908837;29;20028;-61
2023/05/11 12:21:03;;;;;;;3.13;1.95;;;18.20;38.80;;;;;;4895660;29;20091;-59
2023/05/11 12:23:29;;;;;;;2.60;2.20;;;18.10;38.60;;;;;;4897359;29;20036;-61
2023/05/11 12:26:05;;;;;;;2.30;2.10;;;18.10;38.80;;;;;;4909774;29;20099;-62
2023/05/11 12:28:32;;;;;;;2.28;2.08;;;18.10;39.00;;;;;;4912213;29;20035;-60
2023/05/11 12:30:58;;;;;;;2.42;2.10;;;18.00;39.10;;;;;;4886138;29;20514;-60
2023/05/11 12:33:23;;;;;;;2.42;1.90;;;17.90;39.10;;;;;;4889043;29;20040;-59
2023/05/11 12:35:56;;;;;;;3.03;2.20;;;18.00;39.30;;;;;;4896997;29;22433;-60
2023/05/11 12:38:22;;;;;;;3.03;2.40;;;17.90;39.40;;;;;;4897004;29;20106;-59
2023/05/11 12:40:49;;;;;;;2.53;2.30;;;17.90;39.10;;;;;;4898693;29;20082;-58
2023/05/11 12:43:19;;;;;;;1.90;1.80;;;18.00;39.00;;;;;;4904380;29;23417;-64
2023/05/11 12:45:46;;;;;;;5.63;3.05;;;18.00;38.90;;;;;;4902770;29;20035;-60
2023/05/11 12:48:12;;;;;;;5.45;3.00;;;18.00;38.80;;;;;;4910649;29;20040;-60
2023/05/11 12:50:42;;;;;;;2.33;2.05;;;18.00;38.50;;;;;;4913854;29;20035;-61
2023/05/11 12:53:16;;;;;;;2.58;2.20;;;18.00;38.50;;;;;;4907755;29;20028;-62